createdAt,value
2023-01-11T00:00:47.838Z,10.10
2023-01-11T00:03:17.281Z,10.10
2023-01-11T00:05:46.169Z,10.10
2023-01-11T00:08:14.391Z,9.90
2023-01-11T00:10:42.728Z,9.80
2023-01-11T00:13:10.997Z,9.60
2023-01-11T00:15:40.698Z,9.60
2023-01-11T00:18:12.587Z,9.50
2023-01-11T00:20:41.570Z,9.40
2023-01-11T00:23:10.055Z,9.30
2023-01-11T00:25:38.855Z,9.30
2023-01-11T00:28:07.174Z,9.30
2023-01-11T00:30:36.628Z,9.40
2023-01-11T00:33:06.224Z,9.40
2023-01-11T00:35:35.041Z,9.50
2023-01-11T00:38:03.329Z,9.50
2023-01-11T00:40:31.654Z,9.60
2023-01-11T00:43:17.405Z,9.60
2023-01-11T00:46:03.125Z,9.70
2023-01-11T00:48:32.777Z,9.70
2023-01-11T00:51:01.224Z,9.80
2023-01-11T00:53:32.129Z,9.80
2023-01-11T00:56:00.383Z,9.90
2023-01-11T00:58:28.473Z,9.80
2023-01-11T01:00:56.944Z,9.90
2023-01-11T01:03:25.201Z,9.90
2023-01-11T01:05:56.945Z,10.00
2023-01-11T01:08:25.039Z,10.00
2023-01-11T01:10:53.296Z,9.90
2023-01-11T01:13:35.426Z,9.90
2023-01-11T01:16:03.850Z,10.00
2023-01-11T01:18:32.050Z,10.00
2023-01-11T01:21:01.641Z,10.00
2023-01-11T01:23:29.841Z,10.00
2023-01-11T01:25:58.073Z,9.90
2023-01-11T01:28:26.285Z,9.90
2023-01-11T01:30:54.775Z,9.90
2023-01-11T01:33:23.469Z,9.90
2023-01-11T01:35:52.280Z,9.90
2023-01-11T01:38:21.814Z,10.00
2023-01-11T01:40:50.396Z,10.00
2023-01-11T01:43:19.205Z,10.10
2023-01-11T01:45:50.009Z,10.10
2023-01-11T01:48:23.140Z,10.10
2023-01-11T01:50:54.497Z,10.10
2023-01-11T01:53:29.315Z,10.20
2023-01-11T01:56:01.390Z,10.30
2023-01-11T01:58:32.341Z,10.30
2023-01-11T02:01:21.321Z,10.20
2023-01-11T02:03:50.616Z,10.20
2023-01-11T02:06:19.915Z,10.20
2023-01-11T02:08:54.582Z,10.20
2023-01-11T02:11:33.590Z,10.20
2023-01-11T02:14:04.800Z,10.20
2023-01-11T02:16:33.726Z,10.20
2023-01-11T02:19:02.674Z,10.10
2023-01-11T02:21:40.562Z,10.10
2023-01-11T02:24:30.579Z,10.00
2023-01-11T02:27:29.263Z,10.00
2023-01-11T02:30:10.150Z,10.10
2023-01-11T02:32:49.905Z,10.10
2023-01-11T02:35:27.942Z,10.20
2023-01-11T02:38:02.696Z,10.20
2023-01-11T02:40:38.961Z,10.10
2023-01-11T02:43:30.108Z,10.10
2023-01-11T02:46:06.650Z,10.10
2023-01-11T02:48:44.050Z,10.10
2023-01-11T02:51:15.075Z,10.00
2023-01-11T02:53:47.395Z,10.00
2023-01-11T02:56:23.209Z,10.10
2023-01-11T02:58:54.137Z,10.10
2023-01-11T03:01:25.529Z,10.10
2023-01-11T03:03:55.029Z,10.00
2023-01-11T03:06:27.097Z,10.00
2023-01-11T03:09:20.371Z,9.90
2023-01-11T03:12:18.792Z,10.00
2023-01-11T03:14:54.818Z,10.00
2023-01-11T03:17:36.877Z,10.00
2023-01-11T03:20:14.986Z,9.90
2023-01-11T03:22:54.299Z,9.90
2023-01-11T03:25:31.813Z,9.90
2023-01-11T03:28:07.495Z,10.00
2023-01-11T03:30:41.482Z,10.00
2023-01-11T03:33:18.015Z,10.10
2023-01-11T03:35:54.456Z,10.10
2023-01-11T03:38:28.875Z,10.20
2023-01-11T03:41:04.407Z,10.20
2023-01-11T03:43:35.431Z,10.20
2023-01-11T03:46:09.796Z,10.30
2023-01-11T03:48:43.970Z,10.20
2023-01-11T03:51:16.181Z,10.30
2023-01-11T03:53:47.396Z,10.20
2023-01-11T03:56:18.998Z,10.20
2023-01-11T03:58:47.170Z,10.20
2023-01-11T04:01:15.679Z,10.20
2023-01-11T04:03:45.176Z,10.30
2023-01-11T04:06:13.990Z,10.30
2023-01-11T04:08:42.332Z,10.40
2023-01-11T04:11:10.525Z,10.40
2023-01-11T04:13:38.736Z,10.40
2023-01-11T04:16:07.648Z,10.50
2023-01-11T04:18:35.914Z,10.50
2023-01-11T04:21:06.036Z,10.50
2023-01-11T04:23:34.416Z,10.50
2023-01-11T04:26:05.643Z,10.50
2023-01-11T04:28:34.784Z,10.50
2023-01-11T04:31:03.138Z,10.50
2023-01-11T04:33:33.862Z,10.70
2023-01-11T04:36:07.319Z,10.60
2023-01-11T04:38:35.880Z,10.70
2023-01-11T04:41:23.603Z,10.70
2023-01-11T04:43:54.670Z,10.80
2023-01-11T04:46:26.287Z,10.90
2023-01-11T04:48:56.270Z,10.90
2023-01-11T04:51:26.040Z,10.90
2023-01-11T04:53:54.398Z,10.80
2023-01-11T04:56:22.659Z,10.80
2023-01-11T04:58:51.089Z,10.80
2023-01-11T05:01:20.440Z,10.90
2023-01-11T05:03:48.765Z,10.90
2023-01-11T05:06:19.561Z,10.90
2023-01-11T05:08:49.715Z,10.90
2023-01-11T05:11:18.791Z,11.00
2023-01-11T05:13:47.162Z,11.00
2023-01-11T05:16:18.031Z,11.10
2023-01-11T05:18:47.852Z,11.10
2023-01-11T05:21:19.055Z,11.10
2023-01-11T05:23:49.149Z,11.10
2023-01-11T05:26:19.591Z,11.10
2023-01-11T05:28:48.184Z,11.00
2023-01-11T05:31:16.499Z,11.10
2023-01-11T05:33:45.133Z,11.10
2023-01-11T05:36:15.184Z,11.00
2023-01-11T05:38:43.866Z,11.00
2023-01-11T05:41:13.872Z,11.00
2023-01-11T05:43:58.544Z,11.10
2023-01-11T05:46:27.797Z,11.10
2023-01-11T05:48:56.684Z,11.10
2023-01-11T05:51:24.986Z,11.10
2023-01-11T05:53:54.043Z,11.10
2023-01-11T05:56:24.092Z,11.20
2023-01-11T05:58:52.976Z,11.40
2023-01-11T06:01:23.018Z,11.40
2023-01-11T06:03:51.765Z,11.30
2023-01-11T06:06:21.386Z,11.30
2023-01-11T06:08:50.531Z,11.20
2023-01-11T06:11:18.745Z,11.20
2023-01-11T06:13:48.314Z,11.20
2023-01-11T06:16:18.496Z,11.20
2023-01-11T06:18:49.023Z,11.20
2023-01-11T06:21:18.499Z,11.10
2023-01-11T06:23:48.575Z,11.10
2023-01-11T06:26:19.232Z,11.10
2023-01-11T06:28:49.097Z,11.20
2023-01-11T06:31:18.442Z,11.20
2023-01-11T06:33:47.723Z,11.20
2023-01-11T06:36:16.807Z,11.30
2023-01-11T06:38:45.795Z,11.30
2023-01-11T06:41:14.910Z,11.20
2023-01-11T06:43:43.423Z,11.20
2023-01-11T06:46:15.271Z,11.20
2023-01-11T06:48:43.709Z,11.30
2023-01-11T06:51:13.273Z,11.20
2023-01-11T06:53:42.618Z,11.20
2023-01-11T06:56:13.773Z,11.20
2023-01-11T06:58:42.191Z,11.30
2023-01-11T07:01:10.483Z,11.40
2023-01-11T07:03:41.652Z,11.40
2023-01-11T07:06:09.857Z,11.40
2023-01-11T07:08:38.527Z,11.40
2023-01-11T07:11:07.134Z,11.30
2023-01-11T07:13:35.697Z,11.40
2023-01-11T07:16:04.379Z,11.40
2023-01-11T07:18:33.411Z,11.50
2023-01-11T07:21:03.470Z,11.50
2023-01-11T07:23:31.744Z,11.60
2023-01-11T07:25:59.989Z,11.60
2023-01-11T07:28:30.520Z,11.50
2023-01-11T07:31:00.087Z,11.50
2023-01-11T07:33:28.758Z,11.30
2023-01-11T07:35:58.229Z,11.40
2023-01-11T07:38:29.255Z,11.40
2023-01-11T07:40:57.491Z,11.50
2023-01-11T07:43:24.643Z,11.60
2023-01-11T07:45:54.191Z,11.50
2023-01-11T07:48:26.593Z,11.40
2023-01-11T07:50:55.801Z,11.40
2023-01-11T07:53:26.325Z,11.50
2023-01-11T07:55:57.113Z,11.60
2023-01-11T07:58:25.376Z,11.60
2023-01-11T08:00:53.702Z,11.80
2023-01-11T08:03:22.122Z,12.00
2023-01-11T08:05:52.722Z,12.00
2023-01-11T08:08:21.172Z,12.00
2023-01-11T08:11:10.955Z,12.10
2023-01-11T08:13:58.120Z,12.10
2023-01-11T08:16:27.407Z,12.20
2023-01-11T08:18:55.658Z,12.30
2023-01-11T08:21:23.960Z,12.30
2023-01-11T08:23:54.532Z,12.30
2023-01-11T08:26:24.178Z,12.40
2023-01-11T08:28:54.706Z,12.40
2023-01-11T08:31:24.657Z,12.30
2023-01-11T08:33:53.246Z,12.30
2023-01-11T08:36:21.570Z,12.30
2023-01-11T08:38:49.875Z,12.20
2023-01-11T08:41:18.480Z,12.10
2023-01-11T08:43:47.412Z,12.10
2023-01-11T08:46:18.446Z,12.00
2023-01-11T08:48:47.749Z,12.10
2023-01-11T08:51:16.183Z,12.00
2023-01-11T08:53:44.788Z,11.90
2023-01-11T08:56:13.473Z,11.90
2023-01-11T08:58:41.739Z,12.00
2023-01-11T09:01:10.089Z,12.00
2023-01-11T09:03:39.671Z,12.00
2023-01-11T09:06:08.478Z,12.00
2023-01-11T09:08:36.851Z,11.90
2023-01-11T09:11:25.452Z,11.90
2023-01-11T09:13:53.684Z,11.80
2023-01-11T09:16:21.953Z,11.80
2023-01-11T09:18:51.771Z,11.80
2023-01-11T09:21:20.182Z,11.90
2023-01-11T09:23:48.598Z,11.90
2023-01-11T09:26:17.296Z,11.80
2023-01-11T09:28:45.816Z,11.60
2023-01-11T09:31:14.320Z,11.60
2023-01-11T09:33:42.820Z,11.60
2023-01-11T09:36:14.923Z,11.60
2023-01-11T09:38:43.942Z,11.50
2023-01-11T09:41:27.280Z,11.40
2023-01-11T09:44:04.580Z,11.40
2023-01-11T09:46:36.375Z,11.30
2023-01-11T09:49:07.475Z,11.20
2023-01-11T09:51:39.638Z,11.20
2023-01-11T09:54:10.734Z,11.10
2023-01-11T09:56:47.414Z,11.20
2023-01-11T09:59:24.892Z,11.20
2023-01-11T10:02:01.462Z,11.20
2023-01-11T10:04:53.645Z,11.30
2023-01-11T10:18:25.531Z,11.40
2023-01-11T10:19:39.917Z,11.30
2023-01-11T10:22:15.751Z,11.30
2023-01-11T10:24:49.672Z,11.30
2023-01-11T10:27:23.027Z,11.30
2023-01-11T10:30:12.839Z,11.30
2023-01-11T10:33:06.450Z,11.30
2023-01-11T10:35:59.029Z,11.30
2023-01-11T10:38:43.634Z,11.40
2023-01-11T10:41:25.968Z,11.50
2023-01-11T10:44:10.899Z,11.50
2023-01-11T10:46:44.707Z,11.50
2023-01-11T10:49:33.699Z,11.60
2023-01-11T10:52:15.166Z,11.60
2023-01-11T10:54:47.430Z,11.50
2023-01-11T10:57:25.263Z,11.40
2023-01-11T11:00:08.971Z,11.40
2023-01-11T11:02:56.001Z,11.40
2023-01-11T11:05:34.245Z,11.40
2023-01-11T11:08:13.677Z,11.40
2023-01-11T11:10:49.830Z,11.40
2023-01-11T11:13:28.670Z,11.40
2023-01-11T11:16:04.677Z,11.40
2023-01-11T11:18:33.253Z,11.40
2023-01-11T11:21:11.727Z,11.30
2023-01-11T11:23:40.832Z,11.30
2023-01-11T11:26:10.363Z,11.40
2023-01-11T11:29:00.879Z,11.40
2023-01-11T11:31:31.274Z,11.40
2023-01-11T11:34:06.930Z,11.30
2023-01-11T11:36:43.804Z,11.30
2023-01-11T11:39:19.944Z,11.30
2023-01-11T11:41:50.329Z,11.30
2023-01-11T11:44:24.674Z,11.30
2023-01-11T11:47:03.737Z,11.30
2023-01-11T11:49:33.774Z,11.30
2023-01-11T11:52:04.368Z,11.30
2023-01-11T11:54:34.948Z,11.30
2023-01-11T11:57:15.886Z,11.30
2023-01-11T11:59:49.675Z,11.30
2023-01-11T12:02:26.711Z,11.40
2023-01-11T12:04:58.298Z,11.40
2023-01-11T12:07:31.555Z,11.40
2023-01-11T12:10:04.364Z,11.30
2023-01-11T12:12:34.697Z,11.30
2023-01-11T12:15:19.583Z,11.30
2023-01-11T12:17:48.645Z,11.30
2023-01-11T12:20:42.439Z,11.30
2023-01-11T12:23:17.828Z,11.40
2023-01-11T12:26:15.866Z,11.40
2023-01-11T12:29:07.919Z,11.30
2023-01-11T12:31:54.167Z,11.40
2023-01-11T12:34:35.176Z,11.30
2023-01-11T12:37:14.282Z,11.40
2023-01-11T12:39:51.103Z,11.30
2023-01-11T12:42:40.473Z,11.40
2023-01-11T12:45:19.339Z,11.50
2023-01-11T12:48:09.034Z,11.60
2023-01-11T12:50:47.761Z,11.60
2023-01-11T12:53:32.632Z,11.70
2023-01-11T12:56:17.588Z,11.70
2023-01-11T12:58:52.560Z,11.60
2023-01-11T13:01:35.266Z,11.60
2023-01-11T13:04:44.647Z,11.60
2023-01-11T13:07:21.863Z,11.60
2023-01-11T13:10:00.332Z,11.60
2023-01-11T13:12:34.945Z,11.50
2023-01-11T13:15:30.003Z,11.50
2023-01-11T13:18:05.785Z,11.60
2023-01-11T13:21:00.174Z,11.60
2023-01-11T13:23:40.046Z,11.50
2023-01-11T13:26:18.115Z,11.40
2023-01-11T13:28:51.618Z,11.40
2023-01-11T13:31:20.414Z,11.30
2023-01-11T13:33:53.015Z,11.30
2023-01-11T13:36:26.965Z,11.40
2023-01-11T13:39:01.570Z,11.50
2023-01-11T13:41:51.762Z,11.50
2023-01-11T13:44:25.486Z,11.50
2023-01-11T13:47:04.125Z,11.50
2023-01-11T13:50:02.509Z,11.50
2023-01-11T13:52:49.682Z,11.60
2023-01-11T13:55:26.769Z,11.70
2023-01-11T13:58:00.393Z,11.70
2023-01-11T14:00:32.582Z,11.70
2023-01-11T14:03:07.184Z,11.70
2023-01-11T14:05:44.862Z,11.70
2023-01-11T14:08:36.252Z,11.80
2023-01-11T14:11:16.191Z,11.80
2023-01-11T14:14:14.510Z,11.90
2023-01-11T14:16:53.744Z,11.90
2023-01-11T14:19:29.310Z,11.80
2023-01-11T14:22:06.792Z,11.90
2023-01-11T14:24:39.682Z,11.90
2023-01-11T14:27:45.724Z,11.90
2023-01-11T14:30:46.136Z,11.90
2023-01-11T14:33:41.899Z,11.90
2023-01-11T14:36:39.140Z,12.10
2023-01-11T14:39:37.309Z,12.00
2023-01-11T14:42:45.300Z,11.90
2023-01-11T14:45:26.648Z,11.80
2023-01-11T14:48:11.870Z,11.70
2023-01-11T14:51:04.513Z,11.60
2023-01-11T14:53:45.793Z,11.80
2023-01-11T14:56:49.053Z,11.80
2023-01-11T14:59:39.049Z,11.80
2023-01-11T15:02:26.505Z,11.80
2023-01-11T15:05:07.530Z,11.90
2023-01-11T15:07:38.428Z,12.00
2023-01-11T15:10:45.231Z,12.10
2023-01-11T15:13:18.013Z,12.10
2023-01-11T15:16:03.880Z,11.90
2023-01-11T15:18:32.785Z,11.80
2023-01-11T15:21:05.775Z,11.80
2023-01-11T15:23:38.251Z,11.90
2023-01-11T15:26:09.629Z,12.00
2023-01-11T15:28:51.902Z,11.90
2023-01-11T15:31:35.499Z,12.00
2023-01-11T15:34:18.675Z,12.10
2023-01-11T15:37:17.621Z,12.10
2023-01-11T15:39:51.255Z,12.20
2023-01-11T15:43:01.486Z,12.20
2023-01-11T15:46:38.551Z,12.20
2023-01-11T15:49:52.580Z,12.20
2023-01-11T15:52:53.094Z,12.10
2023-01-11T15:55:52.376Z,12.20
2023-01-11T15:58:51.579Z,12.10
2023-01-11T16:01:25.121Z,12.00
2023-01-11T16:04:22.581Z,11.90
2023-01-11T16:06:55.720Z,11.80
2023-01-11T16:09:33.416Z,11.70
2023-01-11T16:12:18.614Z,11.50
2023-01-11T16:15:10.285Z,11.40
2023-01-11T16:17:41.889Z,11.30
2023-01-11T16:20:27.849Z,11.30
2023-01-11T16:22:57.991Z,11.30
2023-01-11T16:25:30.406Z,11.10
2023-01-11T16:28:00.513Z,11.10
2023-01-11T16:30:30.954Z,11.10
2023-01-11T16:33:15.459Z,11.00
2023-01-11T16:35:43.688Z,11.00
2023-01-11T16:38:17.478Z,11.00
2023-01-11T16:40:50.062Z,11.10
2023-01-11T16:43:33.408Z,11.00
2023-01-11T16:46:37.593Z,11.00
2023-01-11T16:49:11.168Z,11.00
2023-01-11T16:51:39.359Z,10.90
2023-01-11T16:54:07.725Z,10.80
2023-01-11T16:56:36.813Z,10.70
2023-01-11T16:59:08.236Z,10.70
2023-01-11T17:01:52.094Z,10.90
2023-01-11T17:04:28.866Z,11.10
2023-01-11T17:06:57.267Z,11.20
2023-01-11T17:09:28.207Z,11.10
2023-01-11T17:11:56.853Z,11.20
2023-01-11T17:14:51.796Z,11.20
2023-01-11T17:17:22.448Z,11.20
2023-01-11T17:19:51.479Z,11.20
2023-01-11T17:22:23.633Z,11.10
2023-01-11T17:24:55.078Z,11.00
2023-01-11T17:27:27.784Z,10.90
2023-01-11T17:29:58.241Z,10.80
2023-01-11T17:32:34.618Z,10.70
2023-01-11T17:35:05.573Z,10.50
2023-01-11T17:37:34.821Z,10.40
2023-01-11T17:40:04.115Z,10.30
2023-01-11T17:42:50.033Z,10.20
2023-01-11T17:45:21.580Z,10.00
2023-01-11T17:47:53.234Z,9.80
2023-01-11T17:50:25.763Z,9.80
2023-01-11T17:53:03.568Z,9.70
2023-01-11T17:55:32.064Z,9.60
2023-01-11T17:58:21.673Z,9.50
2023-01-11T18:01:22.263Z,9.40
2023-01-11T18:03:54.303Z,9.40
2023-01-11T18:06:27.936Z,9.40
2023-01-11T18:08:57.932Z,9.40
2023-01-11T18:11:28.968Z,9.40
2023-01-11T18:13:59.830Z,9.50
2023-01-11T18:16:28.385Z,9.60
2023-01-11T18:18:58.087Z,9.70
2023-01-11T18:21:41.408Z,9.90
2023-01-11T18:24:43.108Z,9.90
2023-01-11T18:27:30.634Z,10.00
2023-01-11T18:30:02.782Z,10.10
2023-01-11T18:32:39.091Z,10.00
2023-01-11T18:35:18.397Z,10.10
2023-01-11T18:37:47.187Z,10.10
2023-01-11T18:40:17.365Z,10.20
2023-01-11T18:42:47.906Z,10.20
2023-01-11T18:45:16.493Z,10.10
2023-01-11T18:47:45.094Z,10.10
2023-01-11T18:50:14.909Z,10.20
2023-01-11T18:52:43.204Z,10.10
2023-01-11T18:55:12.740Z,10.10
2023-01-11T18:57:41.879Z,10.00
2023-01-11T19:00:12.127Z,10.00
2023-01-11T19:02:44.120Z,10.00
2023-01-11T19:05:16.653Z,9.90
2023-01-11T19:07:45.288Z,9.80
2023-01-11T19:10:15.869Z,9.70
2023-01-11T19:12:44.643Z,9.70
2023-01-11T19:15:14.134Z,9.70
2023-01-11T19:17:43.551Z,9.70
2023-01-11T19:20:14.003Z,9.70
2023-01-11T19:22:43.657Z,9.70
2023-01-11T19:25:12.382Z,9.70
2023-01-11T19:27:40.727Z,9.70
2023-01-11T19:30:10.081Z,9.60
2023-01-11T19:32:38.532Z,9.70
2023-01-11T19:35:08.354Z,9.70
2023-01-11T19:37:38.540Z,9.80
2023-01-11T19:40:10.448Z,9.90
2023-01-11T19:42:40.232Z,9.90
2023-01-11T19:45:09.580Z,9.90
2023-01-11T19:47:37.792Z,9.90
2023-01-11T19:50:06.880Z,9.80
2023-01-11T19:52:35.095Z,9.80
2023-01-11T19:55:03.534Z,9.90
2023-01-11T19:57:33.128Z,9.90
2023-01-11T20:00:03.723Z,10.00
2023-01-11T20:02:40.308Z,10.00
2023-01-11T20:05:09.208Z,9.90
2023-01-11T20:07:37.443Z,9.80
2023-01-11T20:10:06.611Z,9.80
2023-01-11T20:12:36.175Z,9.90
2023-01-11T20:15:04.581Z,9.90
2023-01-11T20:17:33.705Z,9.70
2023-01-11T20:20:01.857Z,9.60
2023-01-11T20:22:30.180Z,9.50
2023-01-11T20:25:00.408Z,9.50
2023-01-11T20:27:28.823Z,9.40
2023-01-11T20:29:58.577Z,9.30
2023-01-11T20:32:40.799Z,9.40
2023-01-11T20:35:11.391Z,9.40
2023-01-11T20:37:39.707Z,9.40
2023-01-11T20:40:09.020Z,9.40
2023-01-11T20:42:37.197Z,9.40
2023-01-11T20:45:08.276Z,9.40
2023-01-11T20:47:36.833Z,9.50
2023-01-11T20:50:05.344Z,9.60
2023-01-11T20:52:33.585Z,9.70
2023-01-11T20:55:01.755Z,9.50
2023-01-11T20:57:30.016Z,9.50
2023-01-11T21:00:02.029Z,9.50
2023-01-11T21:02:31.649Z,9.40
2023-01-11T21:05:00.002Z,9.40
2023-01-11T21:07:28.210Z,9.40
2023-01-11T21:09:56.483Z,9.30
2023-01-11T21:12:24.951Z,9.30
2023-01-11T21:14:53.219Z,9.40
2023-01-11T21:17:21.524Z,9.40
2023-01-11T21:19:51.122Z,9.30
2023-01-11T21:22:19.439Z,9.30
2023-01-11T21:24:48.423Z,9.40
2023-01-11T21:27:18.981Z,9.40
2023-01-11T21:29:47.197Z,9.50
2023-01-11T21:32:15.405Z,9.50
2023-01-11T21:34:43.838Z,9.50
2023-01-11T21:37:13.377Z,9.40
2023-01-11T21:39:41.633Z,9.40
2023-01-11T21:42:09.838Z,9.40
2023-01-11T21:44:38.031Z,9.40
2023-01-11T21:47:07.803Z,9.30
2023-01-11T21:49:36.161Z,9.30
2023-01-11T21:52:04.568Z,9.30
2023-01-11T21:54:34.107Z,9.20
2023-01-11T21:57:02.448Z,9.10
2023-01-11T21:59:33.617Z,9.10
2023-01-11T22:02:01.829Z,9.10
2023-01-11T22:04:30.038Z,9.00
2023-01-11T22:07:00.019Z,9.00
2023-01-11T22:09:28.624Z,9.00
2023-01-11T22:11:58.149Z,9.00
2023-01-11T22:14:26.425Z,9.00
2023-01-11T22:16:55.031Z,9.10
2023-01-11T22:19:23.828Z,9.20
2023-01-11T22:21:52.015Z,9.20
2023-01-11T22:24:20.765Z,9.30
2023-01-11T22:26:48.963Z,9.30
2023-01-11T22:29:19.924Z,9.30
2023-01-11T22:31:51.090Z,9.40
2023-01-11T22:34:19.841Z,9.30
2023-01-11T22:36:48.491Z,9.40
2023-01-11T22:39:19.427Z,9.40
2023-01-11T22:41:48.509Z,9.30
2023-01-11T22:44:18.513Z,9.30
2023-01-11T22:46:46.821Z,9.30
2023-01-11T22:49:15.976Z,9.30
2023-01-11T22:51:45.323Z,9.40
2023-01-11T22:54:13.816Z,9.40
2023-01-11T22:56:42.774Z,9.30
2023-01-11T22:59:11.334Z,9.20
2023-01-11T23:01:42.438Z,9.30
2023-01-11T23:04:13.932Z,9.30
2023-01-11T23:06:43.309Z,9.30
2023-01-11T23:09:16.335Z,9.20
2023-01-11T23:12:03.211Z,9.20
2023-01-11T23:14:33.013Z,9.20
2023-01-11T23:17:06.233Z,9.40
2023-01-11T23:19:35.733Z,9.40
2023-01-11T23:22:04.196Z,9.50
2023-01-11T23:24:32.596Z,9.50
2023-01-11T23:27:00.875Z,9.50
2023-01-11T23:29:29.338Z,9.60
2023-01-11T23:31:57.659Z,9.60
2023-01-11T23:34:27.520Z,9.70
2023-01-11T23:36:55.959Z,9.70
2023-01-11T23:39:24.604Z,9.80
2023-01-11T23:42:10.451Z,9.90
2023-01-11T23:44:38.642Z,9.80
2023-01-11T23:47:25.094Z,9.70
2023-01-11T23:49:56.946Z,9.60
2023-01-11T23:52:27.399Z,9.60
2023-01-11T23:54:56.037Z,9.60
2023-01-11T23:57:25.558Z,9.70
2023-01-11T23:59:53.788Z,9.60
